AirNav   Everest Fuels
 
 1091 users online  

KAIV George Downer Airport
Aliceville, Alabama, USA

GOING TO ALICEVILLE?


FAA INFORMATION EFFECTIVE 07 NOVEMBER 2019

Location

FAA Identifier: AIV
Lat/Long: 33-06-24.2800N 088-11-49.8300W
33-06.404667N 088-11.830500W
33.1067444,-88.1971750
(estimated)
Elevation: 150 ft. / 45.7 m (surveyed)
Variation: 02W (2015)
From city: 2 miles SW of ALICEVILLE, AL
Time zone: UTC -6 (UTC -5 during Daylight Saving Time)
Zip code: 35442

Airport Operations

Airport use: Open to the public
Activation date: 10/1961
Control tower: no
ARTCC: MEMPHIS CENTER
FSS: ANNISTON FLIGHT SERVICE STATION
NOTAMs facility: ANB (NOTAM-D service available)
Attendance: UNATNDD
Wind indicator: lighted
Segmented circle: no
Lights: ACTVT MIRL & REILS RY 06/24 - CTAF.
Beacon: white-green (lighted land airport)
Operates sunset to sunrise.

Airport Communications

CTAF/UNICOM: 122.8
MEMPHIS ARTCC APPROACH: 135.6
MEMPHIS ARTCC DEPARTURE: 135.6
  • APCH/DEP SVC PRVDD BY MEMPHIS ARTCC ON FREQS 127.1/269.4 (COLUMBUS RCAG) WHEN COLUMBUS APCH CTL CLSD.

Nearby radio navigation aids

VOR radial/distance  VOR name  Freq  Var
IGBr141/27.7BIGBEE VORTAC116.2004E
CBMr159/34.3CALEDONIA VORTAC115.2000E
LDKr252/34.4CRIMSON VORTAC117.8003E

Airport Services

Fuel available: 100LL
Parking: tiedowns
Airframe service: NONE
Powerplant service: NONE
Bottled oxygen: NONE
Bulk oxygen: NONE

Runway Information

Runway 6/24

Dimensions: 5001 x 80 ft. / 1524 x 24 m
Surface: asphalt, in good condition
Runway edge lights: medium intensity
RUNWAY 6  RUNWAY 24
Latitude: 33-06.208833N33-06.600500N
Longitude: 088-12.261667W088-11.399333W
Elevation: 142.8 ft.149.8 ft.
Traffic pattern: leftleft
Runway heading: 064 magnetic, 062 true244 magnetic, 242 true
Markings: nonprecision, in good conditionnonprecision, in good condition
Runway end identifier lights: yesyes
Touchdown point: yes, no lightsyes, no lights

Airport Ownership and Management from official FAA records

Ownership: Publicly-owned
Owner: CITY OF ALICEVILLE
215 FIRST ST NE
ALICEVILLE, AL 35442
Phone 205-373-6611
ALTERNATE PHONE NUMBER 205-315-1057.
Manager: CITY OF ALICEVILLE
11135 HWY 17
ALICEVILLE, AL 35442
Phone 205-373-0446

Airport Operational Statistics

Aircraft based on the field: 6
Single engine airplanes: 6
    
Aircraft operations: avg 103/week *
100% transient general aviation
* for 12-month period ending 01 October 2019

Additional Remarks

TWY LGTS FOR TWY TURNOFF ONLY.
FOR CD CTC MEMPHIS ARTCC AT 901-368-8453.

Instrument Procedures

NOTE: All procedures below are presented as PDF files. If you need a reader for these files, you should download the free Adobe Reader.

NOT FOR NAVIGATION. Please procure official charts for flight.
FAA instrument procedures published for use from 07 November 2019 at 0901Z to 05 December 2019 at 0900Z.

 
IAPs - Instrument Approach Procedures
RNAV (GPS) RWY 06 **CHANGED**   download (182KB)
RNAV (GPS) RWY 24 **CHANGED**   download (177KB)
NOTE: Special Take-Off Minimums/Departure Procedures apply   download (250KB)

Other nearby airports with instrument procedures:

3M8 - North Pickens Airport (19 nm NE)
KUBS - Columbus-Lowndes County Airport (23 nm NW)
KGTR - Golden Triangle Regional Airport (28 nm NW)
KTCL - Tuscaloosa Regional Airport (30 nm E)
M51 - Oktibbeha Airport (34 nm NW)
 
Loc | Ops | Rwys | IFR | FBO | Links
Com | Nav | Svcs | Stats | Notes
Area around KAIV (George Downer Airport)
 
Road maps at: MapQuest Bing Google
 
Aerial photo
WARNING: Photo may not be current or correct
Aerial photo of KAIV (George Downer Airport)
Do you have a better or more recent aerial photo of George Downer Airport that you would like to share? If so, please send us your photo.

 
Sectional chart

 
Airport distance calculator
Flying to George Downer Airport? Find the distance to fly.

From to KAIV

Sunrise and sunset
Times for 22-Nov-2019
 Local
(UTC-6)
 Zulu
(UTC)
Morning civil twilight06:0412:04
Sunrise06:3112:31
Sunset16:4722:47
Evening civil twilight17:1323:13

Current date and time
Zulu (UTC)  23-Nov-2019 01:50:34
Local (UTC-6)  22-Nov-2019 19:50:34
 
METAR
KGTR 
28nm NW 
230056Z 13005KT 7SM -RA OVC003 18/18 A2996 RMK AO2 RAE10B49 SLP151 P0000 T01780178
KTCL 
30nm E 
230139Z 18011KT 1 3/4SM RA BR SCT040 BKN047 OVC085 18/17 A2997 RMK AO2 RAB35 P0001 T01780167
KCBM 
34nm N 
230130Z AUTO 00000KT 5SM BR BKN004 BKN023 17/17 A2994 RMK AO2 RAB0057E20 CIG 004V023 BKN004 V SCT CIG 003 RWY31C SLP141 $
KSTF 
38nm NW 
230135Z AUTO 17003KT 4SM RA SCT003 SCT022 BKN060 16/16 A2995 RMK AO2 P0002
KNMM 
39nm SW 
230136Z AUTO 11004KT 3SM BR OVC075 17/17 A2997 RMK AO2 T01720167
KDYA 
40nm S 
230135Z AUTO 00000KT 3/4SM BR BKN046 OVC055 A2999 RMK AO2
KM40 
48nm N 
230135Z AUTO 00000KT 1 3/4SM -RA OVC003 25/17 A2996 RMK AO2
TAF
KGTR 
28nm NW 
221721Z 2218/2318 20008KT 4SM -RA BR BKN015 FM221900 20008KT 6SM -SHRA OVC025 FM222200 17005KT 5SM -SHRA BR OVC015 FM230000 13005KT 4SM SHRA BR OVC008 FM230500 18005KT 2SM SHRA BR OVC006 FM231600 28010KT 6SM BR VCSH OVC011
KTCL 
30nm E 
222152Z 2222/2318 18004KT P6SM VCSH OVC035 FM230000 VRB03KT 5SM -RA VCSH OVC015 FM231300 20007G15KT 3SM RA VCSH OVC008
KCBM 
34nm N 
222336Z 2223/2323 16006KT 3200 BR BKN003 OVC015 QNH2998INS BECMG 2304/2305 19004KT 3200 -SHRA OVC003 QNH2984INS WS020/20035KT BECMG 2312/2313 25007KT 9999 VCSH OVC005 QNH2980INS 510203 BECMG 2315/2316 28012G18KT 9999 NSW SCT007 OVC015 QNH2984INS TX17/2223Z TN15/2312Z LAST NO AMDS AFT 2223 NEXT 2416
NOTAMs
Click for the latest NOTAMs
NOTAMs are issued by the DoD/FAA and will open in a separate window not controlled by AirNav.

 

 
 

FBO, Fuel Providers, and Aircraft Ground Support

  
 Business Name 
 
 Contact 
 
 Services / Description 
 
Fuel Prices
 
Comments
  
City of Aliceville 205-373-6611
no information available

If you are affiliated with City of Aliceville and would like to show here your services, contact info, web link, logo, and more, click here
100LL
SS $4.25 
 Updated 29-Mar-2019
 
   write
SS=Self service
Update Fuel Prices
 

Would you like to see your business listed on this page?

 If your business provides an interesting product or service to pilots, flight crews, aircraft, or users of the George Downer Airport, you should consider listing it here.  To start the listing process, click on the button below
 
Add a business
 

Other Pages about George Downer Airport

Update a link
 
Copyright © AirNav, LLC. All rights reserved. Privacy Policy  Contact